.
WxDataArchive / Data Records for 2008-11-10
2008-11-09 November 2008 2008-11-11

Data Records for Monday, 10 November 2008

Time	Temp	Chill	HIndex	Humid	Dewpt	 Wind 	HiWind	WindDir	Rain 	Barom 
-----	----	-----	------	-----	-----	------	------	-------	-----	----- 
00:00	31.9	31.9	31.9	68	22.6	2	5	248	0.00	30.005 
00:05	31.9	31.9	31.9	67	22.2	2	5	248	0.00	30.008 
00:10	32.1	28.2	32.1	66	22.0	4	11	248	0.00	30.013 
00:15	32.1	32.1	32.1	66	22.0	2	5	270	0.00	30.014 
00:20	32.1	32.1	32.1	66	22.0	2	7	248	0.00	30.016 
00:25	32.1	32.1	32.1	66	22.0	2	10	248	0.00	30.016 
00:30	32.2	32.2	32.2	66	22.1	2	5	248	0.00	30.017 
00:35	32.2	32.2	32.2	66	22.1	2	7	270	0.00	30.017 
00:40	32.2	32.2	32.2	65	21.8	2	6	248	0.00	30.018 
00:45	32.2	32.2	32.2	66	22.1	2	5	248	0.00	30.018 
00:50	32.2	32.2	32.2	65	21.8	2	7	248	0.00	30.018 
00:55	32.2	32.2	32.2	65	21.8	2	7	248	0.00	30.018 
01:00	32.2	32.2	32.2	65	21.8	3	9	225	0.00	30.020 
01:05	32.2	32.2	32.2	65	21.8	2	6	270	0.00	30.022 
01:10	32.2	32.2	32.2	65	21.8	3	10	248	0.00	30.021 
01:15	32.2	32.2	32.2	65	21.8	2	6	248	0.00	30.025 
01:20	32.2	32.2	32.2	65	21.8	3	10	248	0.00	30.027 
01:25	32.2	32.2	32.2	65	21.8	2	9	248	0.00	30.028 
01:30	32.2	32.2	32.2	65	21.8	2	7	248	0.00	30.030 
01:35	32.2	32.2	32.2	66	22.1	2	6	248	0.00	30.029 
01:40	32.2	32.2	32.2	67	22.5	3	7	248	0.00	30.030 
01:45	32.2	28.3	32.2	66	22.1	4	10	270	0.00	30.030 
01:50	32.2	32.2	32.2	67	22.5	3	9	248	0.00	30.032 
01:55	32.2	28.3	32.2	67	22.5	4	10	248	0.00	30.033 
02:00	32.1	32.1	32.1	67	22.4	2	6	248	0.00	30.033 
02:05	32.1	32.1	32.1	67	22.4	2	9	248	0.00	30.035 
02:10	32.1	32.1	32.1	68	22.7	3	9	248	0.00	30.035 
02:15	32.1	28.2	32.1	68	22.7	4	10	248	0.00	30.036 
02:20	32.1	28.2	32.1	68	22.7	4	12	248	0.00	30.037 
02:25	31.9	28.0	31.9	68	22.6	4	14	248	0.00	30.040 
02:30	31.9	31.9	31.9	68	22.6	3	8	248	0.00	30.044 
02:35	31.8	27.8	31.8	67	22.1	4	13	248	0.00	30.043 
02:40	31.6	27.6	31.6	67	21.9	4	11	248	0.00	30.046 
02:45	31.5	26.5	31.5	66	21.5	5	11	248	0.00	30.047 
02:50	31.5	31.5	31.5	67	21.8	2	6	248	0.00	30.047 
02:55	31.3	31.3	31.3	67	21.6	3	12	248	0.00	30.048 
03:00	31.3	31.3	31.3	68	22.0	2	6	248	0.00	30.050 
03:05	31.3	31.3	31.3	68	22.0	3	9	248	0.00	30.053 
03:10	31.3	31.3	31.3	69	22.3	2	6	248	0.00	30.053 
03:15	31.3	31.3	31.3	69	22.3	3	11	248	0.00	30.055 
03:20	31.2	31.2	31.2	69	22.2	3	8	248	0.00	30.055 
03:25	31.2	31.2	31.2	70	22.6	1	5	248	0.00	30.056 
03:30	31.0	31.0	31.0	69	22.0	2	5	248	0.00	30.055 
03:35	30.9	30.9	30.9	68	21.6	2	6	248	0.00	30.057 
03:40	30.7	30.7	30.7	67	21.1	3	11	248	0.00	30.056 
03:45	30.7	30.7	30.7	67	21.1	3	6	248	0.00	30.057 
03:50	30.6	30.6	30.6	67	21.0	3	9	270	0.00	30.058 
03:55	30.6	30.6	30.6	67	21.0	3	10	270	0.00	30.059 
04:00	30.6	26.5	30.6	67	21.0	4	9	270	0.00	30.058 
04:05	30.6	30.6	30.6	67	21.0	2	4	248	0.00	30.060 
04:10	30.4	30.4	30.4	67	20.8	2	7	248	0.00	30.065 
04:15	30.4	30.4	30.4	67	20.8	3	9	248	0.00	30.068 
04:20	30.4	30.4	30.4	68	21.1	2	11	248	0.00	30.068 
04:25	30.4	30.4	30.4	68	21.1	2	5	248	0.00	30.070 
04:30	30.4	30.4	30.4	68	21.1	3	10	248	0.00	30.070 
04:35	30.4	30.4	30.4	68	21.1	3	5	248	0.00	30.070 
04:40	30.4	30.4	30.4	68	21.1	3	6	248	0.00	30.070 
04:45	30.3	30.3	30.3	67	20.7	2	5	248	0.00	30.071 
04:50	30.3	30.3	30.3	67	20.7	2	8	270	0.00	30.071 
04:55	30.3	30.3	30.3	67	20.7	2	5	248	0.00	30.075 
05:00	30.3	30.3	30.3	68	21.0	2	7	248	0.00	30.079 
05:05	30.3	30.3	30.3	68	21.0	2	7	248	0.00	30.082 
05:10	30.3	30.3	30.3	67	20.7	3	6	248	0.00	30.085 
05:15	30.3	30.3	30.3	68	21.0	2	5	248	0.00	30.085 
05:20	30.3	30.3	30.3	67	20.7	2	5	248	0.00	30.086 
05:25	30.1	30.1	30.1	67	20.5	2	6	248	0.00	30.088 
05:30	30.1	30.1	30.1	67	20.5	2	10	248	0.00	30.089 
05:35	30.1	30.1	30.1	67	20.5	3	9	248	0.00	30.090 
05:40	30.1	30.1	30.1	66	20.1	3	8	248	0.00	30.093 
05:45	30.1	30.1	30.1	66	20.1	3	7	248	0.00	30.097 
05:50	30.1	30.1	30.1	66	20.1	2	6	270	0.00	30.099 
05:55	30.0	30.0	30.0	66	20.0	3	7	248	0.00	30.097 
06:00	30.0	30.0	30.0	66	20.0	2	6	248	0.00	30.100 
06:05	30.0	30.0	30.0	67	20.4	2	5	248	0.00	30.102 
06:10	30.0	25.8	30.0	66	20.0	4	11	248	0.00	30.104 
06:15	30.0	30.0	30.0	67	20.4	1	4	248	0.00	30.105 
06:20	30.0	30.0	30.0	66	20.0	3	7	248	0.00	30.109 
06:25	30.0	30.0	30.0	67	20.4	3	9	248	0.00	30.112 
06:30	30.0	30.0	30.0	67	20.4	2	6	248	0.00	30.113 
06:35	30.0	30.0	30.0	67	20.4	2	6	248	0.00	30.114 
06:40	30.0	25.8	30.0	67	20.4	4	9	248	0.00	30.115 
06:45	29.8	29.8	29.8	67	20.2	3	10	248	0.00	30.117 
06:50	29.8	29.8	29.8	67	20.2	3	6	248	0.00	30.117 
06:55	29.8	29.8	29.8	67	20.2	2	5	248	0.00	30.118 
07:00	29.8	29.8	29.8	67	20.2	3	9	248	0.00	30.120 
07:05	29.8	29.8	29.8	67	20.2	2	7	248	0.00	30.124 
07:10	29.8	29.8	29.8	66	19.8	3	7	248	0.00	30.129 
07:15	29.8	29.8	29.8	66	19.8	2	7	248	0.00	30.132 
07:20	29.8	29.8	29.8	66	19.8	2	7	248	0.00	30.132 
07:25	29.8	29.8	29.8	66	19.8	2	7	270	0.00	30.134 
07:30	29.8	29.8	29.8	66	19.8	2	6	248	0.00	30.137 
07:35	29.8	29.8	29.8	65	19.5	2	7	248	0.00	30.141 
07:40	29.8	29.8	29.8	65	19.5	3	8	248	0.00	30.143 
07:45	29.7	29.7	29.7	65	19.4	2	7	270	0.00	30.142 
07:50	29.7	29.7	29.7	65	19.4	2	8	248	0.00	30.148 
07:55	29.7	29.7	29.7	64	19.0	2	7	248	0.00	30.149 
08:00	29.7	29.7	29.7	64	19.0	3	7	248	0.00	30.150 
08:05	29.7	29.7	29.7	64	19.0	2	6	248	0.00	30.152 
08:10	29.8	29.8	29.8	64	19.1	2	6	270	0.00	30.157 
08:15	29.8	29.8	29.8	63	18.8	3	10	270	0.00	30.162 
08:20	29.8	29.8	29.8	63	18.8	2	6	248	0.00	30.164 
08:25	29.8	29.8	29.8	63	18.8	3	7	248	0.00	30.164 
08:30	29.8	29.8	29.8	63	18.8	2	6	270	0.00	30.164 
08:35	30.0	30.0	30.0	63	19.0	2	5	270	0.00	30.166 
08:40	30.0	30.0	30.0	63	19.0	2	5	248	0.00	30.166 
08:45	30.0	30.0	30.0	64	19.3	1	6	248	0.00	30.166 
08:50	30.1	30.1	30.1	63	19.0	3	9	248	0.00	30.168 
08:55	30.1	30.1	30.1	63	19.0	2	6	248	0.00	30.169 
09:00	30.1	30.1	30.1	63	19.0	2	6	248	0.00	30.171 
09:05	30.3	30.3	30.3	63	19.2	2	6	248	0.00	30.174 
09:10	30.4	30.4	30.4	63	19.3	2	7	248	0.00	30.175 
09:15	30.4	30.4	30.4	62	19.0	3	12	248	0.00	30.173 
09:20	30.4	30.4	30.4	62	19.0	3	10	248	0.00	30.176 
09:25	30.6	30.6	30.6	62	19.2	3	11	270	0.00	30.176 
09:30	30.6	30.6	30.6	62	19.2	2	9	270	0.00	30.178 
09:35	30.7	30.7	30.7	61	18.9	3	9	270	0.00	30.180 
09:40	30.9	30.9	30.9	61	19.1	2	8	248	0.00	30.181 
09:45	30.9	30.9	30.9	61	19.1	3	6	248	0.00	30.182 
09:50	30.9	30.9	30.9	62	19.4	3	11	248	0.00	30.182 
09:55	30.9	30.9	30.9	61	19.1	3	8	225	0.00	30.182 
10:00	31.0	31.0	31.0	61	19.1	3	7	270	0.00	30.184 
10:05	31.2	31.2	31.2	61	19.3	3	10	248	0.00	30.185 
10:10	31.2	31.2	31.2	61	19.3	3	6	248	0.00	30.186 
10:15	31.3	31.3	31.3	61	19.4	3	10	248	0.00	30.185 
10:20	31.5	31.5	31.5	62	20.0	2	6	248	0.00	30.186 
10:25	31.6	31.6	31.6	62	20.1	2	7	248	0.00	30.188 
10:30	31.6	31.6	31.6	61	19.7	3	8	248	0.00	30.187 
10:35	31.8	31.8	31.8	61	19.9	2	9	248	0.00	30.188 
10:40	31.8	31.8	31.8	61	19.9	3	10	270	0.00	30.190 
10:45	31.8	31.8	31.8	61	19.9	2	6	248	0.00	30.194 
10:50	31.8	31.8	31.8	61	19.9	3	8	248	0.00	30.194 
10:55	31.9	31.9	31.9	61	20.0	2	7	248	0.00	30.194 
11:00	32.1	32.1	32.1	63	20.9	2	6	248	0.00	30.195 
11:05	32.2	32.2	32.2	61	20.3	2	5	248	0.00	30.196 
11:10	32.4	32.4	32.4	61	20.5	2	9	248	0.00	30.195 
11:15	32.4	32.4	32.4	62	20.9	2	6	248	0.00	30.196 
11:20	32.5	32.5	32.5	61	20.6	2	6	248	0.00	30.196 
11:25	32.7	32.7	32.7	62	21.1	2	4	248	0.00	30.196 
11:30	32.7	32.7	32.7	61	20.8	3	7	248	0.00	30.195 
11:35	32.7	32.7	32.7	62	21.1	3	6	248	0.00	30.195 
11:40	32.9	32.9	32.9	62	21.3	2	7	248	0.00	30.194 
11:45	33.2	33.2	33.2	62	21.6	1	4	248	0.00	30.193 
11:50	33.5	33.5	33.5	62	21.9	2	6	270	0.00	30.192 
11:55	33.5	33.5	33.5	62	21.9	2	9	248	0.00	30.189 
12:00	33.5	33.5	33.5	62	21.9	3	9	248	0.00	30.188 
12:05	33.7	33.7	33.7	61	21.7	3	7	248	0.00	30.188 
12:10	33.7	33.7	33.7	62	22.1	2	7	248	0.00	30.183 
12:15	34.1	34.1	34.1	63	22.8	2	5	248	0.00	30.182 
12:20	34.3	34.3	34.3	61	22.3	2	5	248	0.00	30.183 
12:25	34.4	34.4	34.4	62	22.7	1	3	338	0.00	30.184 
12:30	34.4	34.4	34.4	61	22.4	1	4	270	0.00	30.184 
12:35	34.4	34.4	34.4	61	22.4	1	3	248	0.00	30.185 
12:40	34.4	34.4	34.4	61	22.4	1	5	270	0.00	30.185 
12:45	34.3	34.3	34.3	61	22.3	2	5	248	0.00	30.184 
12:50	34.3	34.3	34.3	61	22.3	1	3	248	0.00	30.186 
12:55	34.3	34.3	34.3	61	22.3	1	3	248	0.00	30.187 
13:00	34.6	34.6	34.6	62	22.9	2	5	248	0.00	30.188 
13:05	34.6	34.6	34.6	60	22.2	2	5	248	0.00	30.187 
13:10	34.6	34.6	34.6	61	22.6	2	6	248	0.00	30.186 
13:15	34.4	34.4	34.4	61	22.4	2	7	270	0.00	30.187 
13:20	34.6	34.6	34.6	60	22.2	1	4	270	0.00	30.187 
13:25	34.6	34.6	34.6	59	21.8	2	4	248	0.00	30.187 
13:30	34.6	34.6	34.6	59	21.8	2	5	270	0.00	30.184 
13:35	34.7	34.7	34.7	60	22.3	0	3	248	0.00	30.183 
13:40	34.9	34.9	34.9	60	22.4	1	5	248	0.00	30.185 
13:45	34.9	34.9	34.9	59	22.0	1	2	315	0.00	30.184 
13:50	34.7	34.7	34.7	58	21.5	1	3	248	0.00	30.184 
13:55	34.7	34.7	34.7	59	21.9	1	5	248	0.00	30.184 
14:00	34.7	34.7	34.7	59	21.9	2	4	248	0.00	30.182 
14:05	34.6	34.6	34.6	59	21.8	0	1	248	0.00	30.180 
14:10	34.7	34.7	34.7	59	21.9	0	2	248	0.00	30.180 
14:15	34.9	34.9	34.9	59	22.0	1	2	292	0.00	30.181 
14:20	34.9	34.9	34.9	58	21.6	1	4	248	0.00	30.180 
14:25	34.9	34.9	34.9	58	21.6	0	2	248	0.00	30.180 
14:30	34.9	34.9	34.9	58	21.6	1	3	270	0.00	30.181 
14:35	35.0	35.0	35.0	59	22.1	1	3	270	0.00	30.181 
14:40	35.0	35.0	35.0	57	21.3	1	5	248	0.00	30.181 
14:45	34.9	34.9	34.9	58	21.6	0	2	248	0.00	30.181 
14:50	34.9	34.9	34.9	57	21.2	0	2	315	0.00	30.182 
14:55	34.9	34.9	34.9	58	21.6	0	2	315	0.00	30.181 
15:00	34.7	34.7	34.7	58	21.5	1	3	315	0.00	30.182 
15:05	34.9	34.9	34.9	58	21.6	1	3	270	0.00	30.185 
15:10	34.9	34.9	34.9	58	21.6	0	1	292	0.00	30.183 
15:15	35.5	35.5	35.5	58	22.2	0	2	248	0.00	30.184 
15:20	35.9	35.9	35.9	56	21.8	0	1	248	0.00	30.187 
15:25	35.9	35.9	35.9	54	20.9	0	2	0	0.00	30.190 
15:30	35.8	35.8	35.8	54	20.8	0	1	0	0.00	30.191 
15:35	35.6	35.6	35.6	55	21.0	0	2	0	0.00	30.193 
15:40	35.8	35.8	35.8	57	22.1	0	2	248	0.00	30.194 
15:45	36.0	36.0	36.0	56	21.8	0	2	248	0.00	30.195 
15:50	35.9	35.9	35.9	55	21.3	0	2	0	0.00	30.195 
15:55	35.6	35.6	35.6	55	21.0	0	1	0	0.00	30.196 
16:00	35.2	35.2	35.2	57	21.5	0	2	0	0.00	30.197 
16:05	35.0	35.0	35.0	56	20.9	0	1	338	0.00	30.201 
16:10	35.0	35.0	35.0	56	20.9	0	1	338	0.00	30.202 
16:15	35.0	35.0	35.0	57	21.3	0	1	338	0.00	30.207 
16:20	35.0	35.0	35.0	56	20.9	0	2	338	0.00	30.211 
16:25	35.0	35.0	35.0	57	21.3	0	1	338	0.00	30.211 
16:30	35.0	35.0	35.0	57	21.3	0	1	338	0.00	30.213 
16:35	34.9	34.9	34.9	57	21.2	0	2	338	0.00	30.214 
16:40	34.7	34.7	34.7	57	21.0	0	1	338	0.00	30.216 
16:45	34.7	34.7	34.7	58	21.5	0	1	338	0.00	30.215 
16:50	34.3	34.3	34.3	58	21.1	0	1	338	0.00	30.214 
16:55	34.0	34.0	34.0	59	21.2	0	1	338	0.00	30.214 
17:00	33.5	33.5	33.5	60	21.1	0	0	---	0.00	30.217 
17:05	33.2	33.2	33.2	60	20.8	0	0	---	0.00	30.225 
17:10	32.9	32.9	32.9	60	20.6	0	0	---	0.00	30.228 
17:15	32.7	32.7	32.7	61	20.8	0	0	---	0.00	30.228 
17:20	32.5	32.5	32.5	62	20.9	0	0	---	0.00	30.229 
17:25	32.2	32.2	32.2	62	20.7	0	0	---	0.00	30.229 
17:30	31.9	31.9	31.9	63	20.8	0	0	---	0.00	30.230 
17:35	31.8	31.8	31.8	63	20.7	0	0	---	0.00	30.232 
17:40	31.5	31.5	31.5	64	20.7	0	0	---	0.00	30.231 
17:45	31.3	31.3	31.3	64	20.6	0	0	---	0.00	30.234 
17:50	31.0	31.0	31.0	65	20.6	0	0	---	0.00	30.234 
17:55	30.9	30.9	30.9	65	20.5	0	0	---	0.00	30.237 
18:00	30.6	30.6	30.6	65	20.3	0	0	---	0.00	30.240 
18:05	30.4	30.4	30.4	65	20.1	0	0	---	0.00	30.244 
18:10	30.3	30.3	30.3	66	20.3	0	0	---	0.00	30.248 
18:15	30.1	30.1	30.1	67	20.5	0	0	---	0.00	30.254 
18:20	29.8	29.8	29.8	68	20.5	0	0	---	0.00	30.257 
18:25	29.7	29.7	29.7	69	20.8	0	0	---	0.00	30.258 
18:30	29.4	29.4	29.4	69	20.5	0	0	---	0.00	30.263 
18:35	29.1	29.1	29.1	70	20.6	0	0	---	0.00	30.265 
18:40	28.8	28.8	28.8	71	20.6	0	0	---	0.00	30.269 
18:45	28.7	28.7	28.7	72	20.8	0	0	---	0.00	30.275 
18:50	28.4	28.4	28.4	72	20.5	0	0	---	0.00	30.275 
18:55	28.2	28.2	28.2	73	20.7	0	0	---	0.00	30.275 
19:00	27.9	27.9	27.9	73	20.4	0	0	---	0.00	30.276 
19:05	27.8	27.8	27.8	74	20.6	0	0	---	0.00	30.277 
19:10	27.6	27.6	27.6	74	20.4	0	0	---	0.00	30.278 
19:15	27.5	27.5	27.5	75	20.6	0	0	---	0.00	30.277 
19:20	27.2	27.2	27.2	76	20.7	0	0	---	0.00	30.281 
19:25	27.0	27.0	27.0	76	20.5	0	0	---	0.00	30.278 
19:30	26.9	26.9	26.9	76	20.4	0	0	---	0.00	30.282 
19:35	26.7	26.7	26.7	77	20.5	0	0	---	0.00	30.281 
19:40	26.6	26.6	26.6	77	20.4	0	0	---	0.00	30.282 
19:45	26.4	26.4	26.4	78	20.5	0	0	---	0.00	30.282 
19:50	26.4	26.4	26.4	78	20.5	0	0	---	0.00	30.283 
19:55	26.3	26.3	26.3	79	20.7	0	0	---	0.00	30.284 
20:00	26.1	26.1	26.1	79	20.5	0	0	---	0.00	30.280 
20:05	26.0	26.0	26.0	80	20.7	0	0	---	0.00	30.279 
20:10	25.8	25.8	25.8	80	20.5	0	0	---	0.00	30.276 
20:15	25.7	25.7	25.7	80	20.4	0	0	---	0.00	30.273 
20:20	25.6	25.6	25.6	80	20.3	0	0	---	0.00	30.270 
20:25	25.4	25.4	25.4	81	20.4	0	0	---	0.00	30.267 
20:30	25.4	25.4	25.4	81	20.4	0	0	---	0.00	30.268 
20:35	25.3	25.3	25.3	82	20.6	0	0	---	0.00	30.269 
20:40	25.3	25.3	25.3	82	20.6	0	0	---	0.00	30.270 
20:45	25.1	25.1	25.1	83	20.7	0	0	---	0.00	30.270 
20:50	25.1	25.1	25.1	83	20.7	0	0	---	0.00	30.273 
20:55	25.1	25.1	25.1	84	21.0	0	0	---	0.00	30.279 
21:00	25.0	25.0	25.0	84	20.9	0	0	---	0.00	30.282 
21:05	25.0	25.0	25.0	84	20.9	0	0	---	0.00	30.281 
21:10	25.0	25.0	25.0	84	20.9	0	0	---	0.00	30.283 
21:15	24.8	24.8	24.8	84	20.7	0	0	---	0.00	30.282 
21:20	24.8	24.8	24.8	84	20.7	0	0	---	0.00	30.282 
21:25	24.7	24.7	24.7	85	20.8	0	0	---	0.00	30.282 
21:30	24.5	24.5	24.5	85	20.6	0	0	---	0.00	30.283 
21:35	24.4	24.4	24.4	85	20.6	0	0	---	0.00	30.286 
21:40	24.2	24.2	24.2	85	20.4	0	0	---	0.00	30.287 
21:45	24.1	24.1	24.1	85	20.3	0	0	---	0.00	30.288 
21:50	23.9	23.9	23.9	85	20.1	0	0	---	0.00	30.288 
21:55	23.8	23.8	23.8	85	20.0	0	0	---	0.00	30.292 
22:00	23.6	23.6	23.6	85	19.8	0	0	---	0.00	30.296 
22:05	23.6	23.6	23.6	85	19.8	0	0	---	0.00	30.295 
22:10	23.6	23.6	23.6	86	20.0	0	0	---	0.00	30.291 
22:15	23.5	23.5	23.5	86	19.9	0	0	---	0.00	30.288 
22:20	23.5	23.5	23.5	86	19.9	0	0	---	0.00	30.285 
22:25	23.3	23.3	23.3	86	19.7	0	0	---	0.00	30.289 
22:30	23.2	23.2	23.2	86	19.6	0	0	---	0.00	30.291 
22:35	23.2	23.2	23.2	87	19.9	0	0	---	0.00	30.296 
22:40	23.0	23.0	23.0	87	19.7	0	0	---	0.00	30.298 
22:45	23.0	23.0	23.0	87	19.7	0	0	---	0.00	30.297 
22:50	22.9	22.9	22.9	87	19.6	0	0	---	0.00	30.299 
22:55	22.9	22.9	22.9	87	19.6	0	0	---	0.00	30.300 
23:00	22.9	22.9	22.9	87	19.6	0	0	---	0.00	30.300 
23:05	22.9	22.9	22.9	87	19.6	0	0	---	0.00	30.298 
23:10	22.7	22.7	22.7	87	19.4	0	0	---	0.00	30.299 
23:15	22.5	22.5	22.5	87	19.2	0	0	---	0.00	30.299 
23:20	22.5	22.5	22.5	87	19.2	0	0	---	0.00	30.299 
23:25	22.4	22.4	22.4	87	19.1	0	0	---	0.00	30.299 
23:30	22.2	22.2	22.2	88	19.2	0	0	---	0.00	30.299 
23:35	22.2	22.2	22.2	88	19.2	0	0	---	0.00	30.299 
23:40	22.1	22.1	22.1	88	19.1	0	0	---	0.00	30.298 
23:45	22.1	22.1	22.1	88	19.1	0	0	---	0.00	30.298 
23:50	21.9	21.9	21.9	88	18.9	0	0	---	0.00	30.298 
23:55	21.9	21.9	21.9	88	18.9	0	0	---	0.00	30.298 

CoCoRaHS
IN-AL-39
A2 Web Hosting
Creative Commons License
GoDaddy
Look for:

loaded 2017-12-13 10:20:27 • last modified 2010-11-18 10:43:29
Privacy PolicyDisclaimer
• wx.awcolley.com is powered by PmWiki v.2002016 •
• all content (unless otherwise noted) © 2017 A W Colley